sensor_id;sensor_type;location;lat;lon;timestamp;pressure;altitude;pressure_sealevel;temperature;humidity
82413;BME280;72056;51.980;15.436;2023-11-21T00:00:23;99919.25;;;9.43;100.00
82413;BME280;72056;51.980;15.436;2023-11-21T00:03:10;99924.00;;;9.41;100.00
82413;BME280;72056;51.980;15.436;2023-11-21T00:05:44;99929.25;;;9.42;100.00
82413;BME280;72056;51.980;15.436;2023-11-21T00:08:10;99924.44;;;9.36;100.00
82413;BME280;72056;51.980;15.436;2023-11-21T00:10:41;99922.19;;;9.32;100.00
82413;BME280;72056;51.980;15.436;2023-11-21T00:13:08;99929.19;;;9.34;100.00
82413;BME280;72056;51.980;15.436;2023-11-21T00:15:39;99926.50;;;9.25;100.00
82413;BME280;72056;51.980;15.436;2023-11-21T00:18:06;99931.06;;;9.34;100.00
82413;BME280;72056;51.980;15.436;2023-11-21T00:20:34;99924.63;;;9.35;100.00
82413;BME280;72056;51.980;15.436;2023-11-21T00:23:03;99930.03;;;9.35;100.00
82413;BME280;72056;51.980;15.436;2023-11-21T00:25:34;99924.06;;;9.31;100.00
82413;BME280;72056;51.980;15.436;2023-11-21T00:28:00;99933.19;;;9.30;100.00
82413;BME280;72056;51.980;15.436;2023-11-21T00:30:28;99932.59;;;9.36;100.00
82413;BME280;72056;51.980;15.436;2023-11-21T00:32:57;99931.66;;;9.28;100.00
82413;BME280;72056;51.980;15.436;2023-11-21T00:35:27;99935.91;;;9.30;100.00
82413;BME280;72056;51.980;15.436;2023-11-21T00:37:54;99937.63;;;9.31;100.00
82413;BME280;72056;51.980;15.436;2023-11-21T00:40:21;99939.94;;;9.26;100.00
82413;BME280;72056;51.980;15.436;2023-11-21T00:42:48;99942.81;;;9.25;100.00
82413;BME280;72056;51.980;15.436;2023-11-21T00:45:15;99933.66;;;9.26;100.00
82413;BME280;72056;51.980;15.436;2023-11-21T00:47:46;99938.94;;;9.27;100.00
82413;BME280;72056;51.980;15.436;2023-11-21T00:50:14;99935.13;;;9.20;100.00
82413;BME280;72056;51.980;15.436;2023-11-21T00:52:41;99936.69;;;9.23;100.00
82413;BME280;72056;51.980;15.436;2023-11-21T00:55:08;99942.66;;;9.26;100.00
82413;BME280;72056;51.980;15.436;2023-11-21T00:57:35;99935.66;;;9.24;100.00
82413;BME280;72056;51.980;15.436;2023-11-21T01:00:01;99935.66;;;9.24;100.00
82413;BME280;72056;51.980;15.436;2023-11-21T01:02:33;99939.81;;;9.28;100.00
82413;BME280;72056;51.980;15.436;2023-11-21T01:05:02;99948.81;;;9.28;100.00
82413;BME280;72056;51.980;15.436;2023-11-21T01:07:30;99940.28;;;9.23;100.00
82413;BME280;72056;51.980;15.436;2023-11-21T01:09:57;99947.56;;;9.23;100.00
82413;BME280;72056;51.980;15.436;2023-11-21T01:12:25;99949.72;;;9.19;100.00
82413;BME280;72056;51.980;15.436;2023-11-21T01:14:52;99948.72;;;9.20;100.00
82413;BME280;72056;51.980;15.436;2023-11-21T01:17:19;99947.84;;;9.20;100.00
82413;BME280;72056;51.980;15.436;2023-11-21T01:19:46;99955.75;;;9.13;100.00
82413;BME280;72056;51.980;15.436;2023-11-21T01:22:12;99945.19;;;9.10;100.00
82413;BME280;72056;51.980;15.436;2023-11-21T01:24:39;99945.88;;;9.12;100.00
82413;BME280;72056;51.980;15.436;2023-11-21T01:27:06;99953.75;;;9.15;100.00
82413;BME280;72056;51.980;15.436;2023-11-21T01:29:38;99954.47;;;9.17;100.00
82413;BME280;72056;51.980;15.436;2023-11-21T01:32:05;99952.63;;;9.08;100.00
82413;BME280;72056;51.980;15.436;2023-11-21T01:34:35;99957.91;;;9.10;100.00
82413;BME280;72056;51.980;15.436;2023-11-21T01:37:05;99949.31;;;9.14;100.00
82413;BME280;72056;51.980;15.436;2023-11-21T01:39:36;99958.00;;;9.18;100.00
82413;BME280;72056;51.980;15.436;2023-11-21T01:42:07;99957.31;;;9.16;100.00
82413;BME280;72056;51.980;15.436;2023-11-21T01:44:38;99953.59;;;9.17;100.00
82413;BME280;72056;51.980;15.436;2023-11-21T01:47:07;99953.94;;;9.04;100.00
82413;BME280;72056;51.980;15.436;2023-11-21T01:49:38;99959.78;;;9.09;100.00
82413;BME280;72056;51.980;15.436;2023-11-21T01:52:06;99962.19;;;9.12;100.00
82413;BME280;72056;51.980;15.436;2023-11-21T01:54:34;99956.75;;;9.12;100.00
82413;BME280;72056;51.980;15.436;2023-11-21T01:57:06;99962.19;;;9.12;100.00
82413;BME280;72056;51.980;15.436;2023-11-21T01:59:37;99967.59;;;9.12;100.00
82413;BME280;72056;51.980;15.436;2023-11-21T02:02:06;99971.34;;;9.11;100.00
82413;BME280;72056;51.980;15.436;2023-11-21T02:04:36;99972.63;;;9.07;100.00
82413;BME280;72056;51.980;15.436;2023-11-21T02:07:03;99973.47;;;8.80;100.00
82413;BME280;72056;51.980;15.436;2023-11-21T02:09:33;99974.84;;;8.94;100.00
82413;BME280;72056;51.980;15.436;2023-11-21T02:12:00;99974.34;;;9.08;100.00
82413;BME280;72056;51.980;15.436;2023-11-21T02:14:27;99980.69;;;8.99;100.00
82413;BME280;72056;51.980;15.436;2023-11-21T02:16:58;99981.78;;;9.06;100.00
82413;BME280;72056;51.980;15.436;2023-11-21T02:19:24;99972.97;;;9.04;100.00
82413;BME280;72056;51.980;15.436;2023-11-21T02:21:59;99982.03;;;9.13;100.00
82413;BME280;72056;51.980;15.436;2023-11-21T02:24:29;99979.31;;;9.13;100.00
82413;BME280;72056;51.980;15.436;2023-11-21T02:27:01;99981.50;;;9.09;100.00
82413;BME280;72056;51.980;15.436;2023-11-21T02:29:29;99979.50;;;9.11;100.00
82413;BME280;72056;51.980;15.436;2023-11-21T02:32:00;99974.34;;;9.08;100.00
82413;BME280;72056;51.980;15.436;2023-11-21T02:34:27;99970.78;;;9.08;100.00
82413;BME280;72056;51.980;15.436;2023-11-21T02:36:57;99978.06;;;9.07;100.00
82413;BME280;72056;51.980;15.436;2023-11-21T02:39:24;99975.34;;;9.07;100.00
82413;BME280;72056;51.980;15.436;2023-11-21T02:41:55;99973.63;;;9.06;100.00
82413;BME280;72056;51.980;15.436;2023-11-21T02:44:22;99979.78;;;9.08;100.00
82413;BME280;72056;51.980;15.436;2023-11-21T02:46:49;99971.63;;;9.08;100.00
82413;BME280;72056;51.980;15.436;2023-11-21T02:49:21;99970.94;;;9.06;100.00
82413;BME280;72056;51.980;15.436;2023-11-21T02:51:52;99988.66;;;9.10;100.00
82413;BME280;72056;51.980;15.436;2023-11-21T02:54:21;99983.91;;;9.12;100.00
82413;BME280;72056;51.980;15.436;2023-11-21T02:56:50;99981.50;;;9.09;100.00
82413;BME280;72056;51.980;15.436;2023-11-21T02:59:18;99978.06;;;9.07;100.00
82413;BME280;72056;51.980;15.436;2023-11-21T03:01:46;99982.50;;;9.08;100.00
82413;BME280;72056;51.980;15.436;2023-11-21T03:04:13;99978.38;;;9.04;100.00
82413;BME280;72056;51.980;15.436;2023-11-21T03:06:44;99980.38;;;9.02;100.00
82413;BME280;72056;51.980;15.436;2023-11-21T03:09:12;99970.25;;;9.04;100.00
82413;BME280;72056;51.980;15.436;2023-11-21T03:11:38;99975.53;;;9.06;100.00
82413;BME280;72056;51.980;15.436;2023-11-21T03:14:05;99975.88;;;8.93;100.00
82413;BME280;72056;51.980;15.436;2023-11-21T03:16:33;99980.38;;;9.02;100.00
82413;BME280;72056;51.980;15.436;2023-11-21T03:18:59;99974.66;;;9.05;100.00
82413;BME280;72056;51.980;15.436;2023-11-21T03:21:31;99983.50;;;9.07;100.00
82413;BME280;72056;51.980;15.436;2023-11-21T03:24:02;99987.66;;;9.11;100.00
82413;BME280;72056;51.980;15.436;2023-11-21T03:26:30;99987.81;;;9.00;100.00
82413;BME280;72056;51.980;15.436;2023-11-21T03:29:01;99989.94;;;9.06;100.00
82413;BME280;72056;51.980;15.436;2023-11-21T03:31:27;100003.09;;;9.01;100.00
82413;BME280;72056;51.980;15.436;2023-11-21T03:33:54;99997.06;;;9.07;100.00
82413;BME280;72056;51.980;15.436;2023-11-21T03:36:24;99994.22;;;9.09;100.00
82413;BME280;72056;51.980;15.436;2023-11-21T03:38:52;99995.47;;;9.14;100.00
82413;BME280;72056;51.980;15.436;2023-11-21T03:41:24;99990.34;;;9.11;100.00
82413;BME280;72056;51.980;15.436;2023-11-21T03:43:51;99998.19;;;9.14;100.00
82413;BME280;72056;51.980;15.436;2023-11-21T03:46:18;99996.63;;;9.12;100.00
82413;BME280;72056;51.980;15.436;2023-11-21T03:48:48;99998.03;;;9.16;100.00
82413;BME280;72056;51.980;15.436;2023-11-21T03:51:19;100000.38;;;9.01;100.00
82413;BME280;72056;51.980;15.436;2023-11-21T03:53:48;99995.78;;;9.11;100.00
82413;BME280;72056;51.980;15.436;2023-11-21T03:56:15;99995.78;;;9.11;100.00
82413;BME280;72056;51.980;15.436;2023-11-21T03:58:46;99991.34;;;9.10;100.00
82413;BME280;72056;51.980;15.436;2023-11-21T04:01:21;100002.91;;;9.12;100.00
82413;BME280;72056;51.980;15.436;2023-11-21T04:03:49;99991.50;;;9.09;100.00
82413;BME280;72056;51.980;15.436;2023-11-21T04:06:16;100001.50;;;9.08;100.00
82413;BME280;72056;51.980;15.436;2023-11-21T04:08:44;100002.09;;;9.02;100.00
82413;BME280;72056;51.980;15.436;2023-11-21T04:11:12;99998.94;;;9.07;100.00
82413;BME280;72056;51.980;15.436;2023-11-21T04:13:39;99998.94;;;9.07;100.00
82413;BME280;72056;51.980;15.436;2023-11-21T04:16:09;100003.06;;;9.11;100.00
82413;BME280;72056;51.980;15.436;2023-11-21T04:18:37;100003.38;;;9.08;100.00
82413;BME280;72056;51.980;15.436;2023-11-21T04:21:05;100004.53;;;9.05;100.00
82413;BME280;72056;51.980;15.436;2023-11-21T04:23:32;100007.66;;;9.10;100.00
82413;BME280;72056;51.980;15.436;2023-11-21T04:26:00;100007.66;;;9.10;100.00
82413;BME280;72056;51.980;15.436;2023-11-21T04:28:28;100021.22;;;9.10;100.00
82413;BME280;72056;51.980;15.436;2023-11-21T04:30:59;100020.91;;;9.13;100.00
82413;BME280;72056;51.980;15.436;2023-11-21T04:33:30;100015.47;;;9.13;100.00
82413;BME280;72056;51.980;15.436;2023-11-21T04:35:57;100018.19;;;9.13;100.00
82413;BME280;72056;51.980;15.436;2023-11-21T04:38:28;100025.50;;;9.13;100.00
82413;BME280;72056;51.980;15.436;2023-11-21T04:40:55;100027.06;;;9.15;100.00
82413;BME280;72056;51.980;15.436;2023-11-21T04:43:26;100025.59;;;9.21;100.00
82413;BME280;72056;51.980;15.436;2023-11-21T04:46:01;100027.91;;;9.16;100.00
82413;BME280;72056;51.980;15.436;2023-11-21T04:48:28;100039.63;;;9.16;100.00
82413;BME280;72056;51.980;15.436;2023-11-21T04:51:00;100037.06;;;9.15;100.00
82413;BME280;72056;51.980;15.436;2023-11-21T04:53:30;100041.50;;;9.16;100.00
82413;BME280;72056;51.980;15.436;2023-11-21T04:55:56;100040.78;;;9.14;100.00
82413;BME280;72056;51.980;15.436;2023-11-21T04:58:23;100036.25;;;9.05;100.00
82413;BME280;72056;51.980;15.436;2023-11-21T05:00:50;100048.41;;;9.00;100.00
82413;BME280;72056;51.980;15.436;2023-11-21T05:03:17;100048.44;;;8.91;100.00
82413;BME280;72056;51.980;15.436;2023-11-21T05:05:44;100058.16;;;8.84;100.00
82413;BME280;72056;51.980;15.436;2023-11-21T05:08:11;100064.19;;;8.78;100.00
82413;BME280;72056;51.980;15.436;2023-11-21T05:10:40;100062.31;;;8.78;100.00
82413;BME280;72056;51.980;15.436;2023-11-21T05:13:07;100064.50;;;8.75;100.00
82413;BME280;72056;51.980;15.436;2023-11-21T05:15:39;100075.63;;;8.72;100.00
82413;BME280;72056;51.980;15.436;2023-11-21T05:18:07;100067.63;;;8.70;100.00
82413;BME280;72056;51.980;15.436;2023-11-21T05:20:34;100081.19;;;8.70;100.00
82413;BME280;72056;51.980;15.436;2023-11-21T05:23:01;100079.19;;;8.72;100.00
82413;BME280;72056;51.980;15.436;2023-11-21T05:25:28;100073.22;;;8.69;100.00
82413;BME280;72056;51.980;15.436;2023-11-21T05:27:56;100079.91;;;8.74;100.00
82413;BME280;72056;51.980;15.436;2023-11-21T05:30:26;100088.75;;;8.76;100.00
82413;BME280;72056;51.980;15.436;2023-11-21T05:32:52;100081.75;;;8.74;100.00
82413;BME280;72056;51.980;15.436;2023-11-21T05:35:20;100092.22;;;8.69;100.00
82413;BME280;72056;51.980;15.436;2023-11-21T05:37:47;100090.34;;;8.69;100.00
82413;BME280;72056;51.980;15.436;2023-11-21T05:40:14;100101.91;;;8.62;100.00
82413;BME280;72056;51.980;15.436;2023-11-21T05:42:41;100106.50;;;8.51;100.00
82413;BME280;72056;51.980;15.436;2023-11-21T05:45:08;100109.50;;;8.39;100.00
82413;BME280;72056;51.980;15.436;2023-11-21T05:47:42;100115.31;;;8.34;100.00
82413;BME280;72056;51.980;15.436;2023-11-21T05:50:10;100110.47;;;8.28;100.00
82413;BME280;72056;51.980;15.436;2023-11-21T05:52:38;100115.88;;;8.18;100.00
82413;BME280;72056;51.980;15.436;2023-11-21T05:55:09;100121.72;;;8.14;100.00
82413;BME280;72056;51.980;15.436;2023-11-21T05:57:42;100126.13;;;8.05;100.00
82413;BME280;72056;51.980;15.436;2023-11-21T06:00:14;100129.09;;;7.93;100.00
82413;BME280;72056;51.980;15.436;2023-11-21T06:02:52;100134.38;;;7.94;100.00
82413;BME280;72056;51.980;15.436;2023-11-21T06:05:22;100143.66;;;7.92;100.00
82413;BME280;72056;51.980;15.436;2023-11-21T06:07:55;100141.81;;;7.92;100.00
82413;BME280;72056;51.980;15.436;2023-11-21T06:10:25;100132.09;;;7.90;100.00
82413;BME280;72056;51.980;15.436;2023-11-21T06:12:51;100147.34;;;7.91;100.00
82413;BME280;72056;51.980;15.436;2023-11-21T06:15:18;100145.19;;;7.85;100.00
82413;BME280;72056;51.980;15.436;2023-11-21T06:17:46;100151.88;;;7.80;100.00
82413;BME280;72056;51.980;15.436;2023-11-21T06:20:18;100152.84;;;7.70;100.00
82413;BME280;72056;51.980;15.436;2023-11-21T06:22:46;100155.53;;;7.60;100.00
82413;BME280;72056;51.980;15.436;2023-11-21T06:25:13;100161.47;;;7.54;100.00
82413;BME280;72056;51.980;15.436;2023-11-21T06:27:42;100171.13;;;7.47;100.00
82413;BME280;72056;51.980;15.436;2023-11-21T06:30:19;100173.28;;;7.44;100.00
82413;BME280;72056;51.980;15.436;2023-11-21T06:32:46;100180.47;;;7.33;100.00
82413;BME280;72056;51.980;15.436;2023-11-21T06:35:12;100190.44;;;7.33;100.00
82413;BME280;72056;51.980;15.436;2023-11-21T06:37:44;100187.69;;;7.23;100.00
82413;BME280;72056;51.980;15.436;2023-11-21T06:40:14;100194.94;;;7.23;100.00
82413;BME280;72056;51.980;15.436;2023-11-21T06:42:47;100204.91;;;7.22;100.00
82413;BME280;72056;51.980;15.436;2023-11-21T06:45:15;100205.06;;;7.21;100.00
82413;BME280;72056;51.980;15.436;2023-11-21T06:47:43;100220.13;;;7.14;100.00
82413;BME280;72056;51.980;15.436;2023-11-21T06:50:15;100214.72;;;7.14;100.00
82413;BME280;72056;51.980;15.436;2023-11-21T06:52:42;100225.66;;;7.12;100.00
82413;BME280;72056;51.980;15.436;2023-11-21T06:55:13;100232.91;;;7.12;100.00
82413;BME280;72056;51.980;15.436;2023-11-21T06:57:41;100229.63;;;7.08;100.00
82413;BME280;72056;51.980;15.436;2023-11-21T07:00:11;100237.13;;;7.05;100.00
82413;BME280;72056;51.980;15.436;2023-11-21T07:02:40;100231.00;;;7.03;100.00
82413;BME280;72056;51.980;15.436;2023-11-21T07:05:07;100238.06;;;6.94;100.00
82413;BME280;72056;51.980;15.436;2023-11-21T07:07:39;100244.84;;;6.88;100.00
82413;BME280;72056;51.980;15.436;2023-11-21T07:10:06;100245.59;;;6.90;100.00
82413;BME280;72056;51.980;15.436;2023-11-21T07:12:34;100236.97;;;6.85;100.00
82413;BME280;72056;51.980;15.436;2023-11-21T07:15:04;100246.34;;;6.81;100.00
82413;BME280;72056;51.980;15.436;2023-11-21T07:17:35;100254.47;;;6.81;100.00
82413;BME280;72056;51.980;15.436;2023-11-21T07:20:02;100252.03;;;6.78;100.00
82413;BME280;72056;51.980;15.436;2023-11-21T07:22:30;100262.50;;;6.72;100.00
82413;BME280;72056;51.980;15.436;2023-11-21T07:24:57;100272.97;;;6.65;100.00
82413;BME280;72056;51.980;15.436;2023-11-21T07:27:25;100262.38;;;6.62;100.00
82413;BME280;72056;51.980;15.436;2023-11-21T07:29:51;100269.81;;;6.49;100.00
82413;BME280;72056;51.980;15.436;2023-11-21T07:32:24;100274.97;;;6.52;100.00
82413;BME280;72056;51.980;15.436;2023-11-21T07:34:53;100280.66;;;6.49;100.00
82413;BME280;72056;51.980;15.436;2023-11-21T07:37:20;100281.63;;;6.48;100.00
82413;BME280;72056;51.980;15.436;2023-11-21T07:39:47;100286.41;;;6.44;100.00
82413;BME280;72056;51.980;15.436;2023-11-21T07:42:14;100289.00;;;6.46;100.00
82413;BME280;72056;51.980;15.436;2023-11-21T07:44:43;100284.72;;;6.43;100.00
82413;BME280;72056;51.980;15.436;2023-11-21T07:47:17;100300.31;;;6.40;100.00
82413;BME280;72056;51.980;15.436;2023-11-21T07:49:47;100295.16;;;6.37;100.00
82413;BME280;72056;51.980;15.436;2023-11-21T07:52:14;100299.22;;;6.31;100.00
82413;BME280;72056;51.980;15.436;2023-11-21T07:54:45;100304.88;;;6.28;100.00
82413;BME280;72056;51.980;15.436;2023-11-21T07:57:13;100313.47;;;6.22;100.00
82413;BME280;72056;51.980;15.436;2023-11-21T07:59:42;100304.50;;;6.22;100.00
82413;BME280;72056;51.980;15.436;2023-11-21T08:02:12;100306.50;;;6.20;100.00
82413;BME280;72056;51.980;15.436;2023-11-21T08:04:39;100312.88;;;6.19;100.00
82413;BME280;72056;51.980;15.436;2023-11-21T08:07:07;100322.72;;;6.20;100.00
82413;BME280;72056;51.980;15.436;2023-11-21T08:09:35;100324.91;;;6.14;100.00
82413;BME280;72056;51.980;15.436;2023-11-21T08:12:06;100337.19;;;6.07;100.00
82413;BME280;72056;51.980;15.436;2023-11-21T08:14:33;100338.53;;;6.02;100.00
82413;BME280;72056;51.980;15.436;2023-11-21T08:17:00;100339.16;;;5.94;100.00
82413;BME280;72056;51.980;15.436;2023-11-21T08:19:26;100342.72;;;5.95;100.00
82413;BME280;72056;51.980;15.436;2023-11-21T08:21:57;100339.25;;;5.93;100.00
82413;BME280;72056;51.980;15.436;2023-11-21T08:24:25;100348.91;;;5.84;100.00
82413;BME280;72056;51.980;15.436;2023-11-21T08:26:52;100345.38;;;5.84;100.00
82413;BME280;72056;51.980;15.436;2023-11-21T08:29:20;100357.00;;;5.84;100.00
82413;BME280;72056;51.980;15.436;2023-11-21T08:31:48;100357.75;;;5.86;100.00
82413;BME280;72056;51.980;15.436;2023-11-21T08:34:14;100369.44;;;5.87;100.00
82413;BME280;72056;51.980;15.436;2023-11-21T08:36:43;100377.47;;;5.88;100.00
82413;BME280;72056;51.980;15.436;2023-11-21T08:39:11;100376.66;;;5.86;100.00
82413;BME280;72056;51.980;15.436;2023-11-21T08:41:39;100384.28;;;5.81;100.00
82413;BME280;72056;51.980;15.436;2023-11-21T08:44:07;100379.09;;;5.78;100.00
82413;BME280;72056;51.980;15.436;2023-11-21T08:46:38;100381.09;;;5.76;100.00
82413;BME280;72056;51.980;15.436;2023-11-21T08:49:06;100387.34;;;5.77;100.00
82413;BME280;72056;51.980;15.436;2023-11-21T08:51:32;100391.25;;;5.72;100.00
82413;BME280;72056;51.980;15.436;2023-11-21T08:54:01;100386.22;;;5.68;100.00
82413;BME280;72056;51.980;15.436;2023-11-21T08:56:34;100395.53;;;5.64;100.00
82413;BME280;72056;51.980;15.436;2023-11-21T08:59:01;100389.00;;;5.55;100.00
82413;BME280;72056;51.980;15.436;2023-11-21T09:01:33;100400.72;;;5.43;100.00
82413;BME280;72056;51.980;15.436;2023-11-21T09:04:00;100393.94;;;5.38;100.00
82413;BME280;72056;51.980;15.436;2023-11-21T09:06:31;100395.19;;;5.33;100.00
82413;BME280;72056;51.980;15.436;2023-11-21T09:08:57;100401.78;;;5.29;100.00
82413;BME280;72056;51.980;15.436;2023-11-21T09:11:24;100409.88;;;5.29;100.00
82413;BME280;72056;51.980;15.436;2023-11-21T09:13:51;100407.50;;;5.25;100.00
82413;BME280;72056;51.980;15.436;2023-11-21T09:16:19;100413.00;;;5.12;100.00
82413;BME280;72056;51.980;15.436;2023-11-21T09:18:50;100419.56;;;5.08;100.00
82413;BME280;72056;51.980;15.436;2023-11-21T09:21:21;100413.09;;;5.11;100.00
82413;BME280;72056;51.980;15.436;2023-11-21T09:23:48;100417.84;;;5.07;100.00
82413;BME280;72056;51.980;15.436;2023-11-21T09:26:14;100415.38;;;5.04;100.00
82413;BME280;72056;51.980;15.436;2023-11-21T09:28:43;100425.25;;;4.92;100.00
82413;BME280;72056;51.980;15.436;2023-11-21T09:31:14;100427.59;;;4.97;100.00
82413;BME280;72056;51.980;15.436;2023-11-21T09:33:43;100427.59;;;4.97;100.00
82413;BME280;72056;51.980;15.436;2023-11-21T09:36:14;100427.19;;;4.90;100.00
82413;BME280;72056;51.980;15.436;2023-11-21T09:38:41;100438.63;;;4.94;100.00
82413;BME280;72056;51.980;15.436;2023-11-21T09:41:15;100442.94;;;4.97;100.00
82413;BME280;72056;51.980;15.436;2023-11-21T09:43:46;100434.81;;;4.97;100.00
82413;BME280;72056;51.980;15.436;2023-11-21T09:46:14;100438.41;;;4.97;100.00
82413;BME280;72056;51.980;15.436;2023-11-21T09:48:50;100442.47;;;5.03;100.00
82413;BME280;72056;51.980;15.436;2023-11-21T09:51:19;100443.84;;;5.08;100.00
82413;BME280;72056;51.980;15.436;2023-11-21T09:53:49;100454.88;;;5.05;100.00
82413;BME280;72056;51.980;15.436;2023-11-21T09:56:18;100465.44;;;5.08;100.00
82413;BME280;72056;51.980;15.436;2023-11-21T09:58:53;100465.25;;;4.99;100.00
82413;BME280;72056;51.980;15.436;2023-11-21T10:01:22;100467.09;;;4.98;100.00
82413;BME280;72056;51.980;15.436;2023-11-21T10:03:55;100465.72;;;4.92;100.00
82413;BME280;72056;51.980;15.436;2023-11-21T10:06:26;100464.22;;;4.88;100.00
82413;BME280;72056;51.980;15.436;2023-11-21T10:08:54;100475.00;;;4.88;100.00
82413;BME280;72056;51.980;15.436;2023-11-21T10:11:27;100469.63;;;4.88;100.00
82413;BME280;72056;51.980;15.436;2023-11-21T10:13:57;100466.16;;;4.86;100.00
82413;BME280;72056;51.980;15.436;2023-11-21T10:16:32;100466.16;;;4.86;100.00
82413;BME280;72056;51.980;15.436;2023-11-21T10:18:59;100469.19;;;4.82;100.00
82413;BME280;72056;51.980;15.436;2023-11-21T10:21:26;100470.38;;;4.78;100.00
82413;BME280;72056;51.980;15.436;2023-11-21T10:23:54;100476.44;;;4.69;100.00
82413;BME280;72056;51.980;15.436;2023-11-21T10:26:22;100474.38;;;4.60;100.00
82413;BME280;72056;51.980;15.436;2023-11-21T10:28:57;100469.34;;;4.55;100.00
82413;BME280;72056;51.980;15.436;2023-11-21T10:31:26;100472.47;;;4.49;100.00
82413;BME280;72056;51.980;15.436;2023-11-21T10:33:54;100476.34;;;4.45;100.00
82413;BME280;72056;51.980;15.436;2023-11-21T10:36:28;100481.84;;;4.43;100.00
82413;BME280;72056;51.980;15.436;2023-11-21T10:38:55;100494.03;;;4.36;100.00
82413;BME280;72056;51.980;15.436;2023-11-21T10:41:23;100483.91;;;4.40;100.00
82413;BME280;72056;51.980;15.436;2023-11-21T10:43:53;100489.84;;;4.32;100.00
82413;BME280;72056;51.980;15.436;2023-11-21T10:46:24;100499.41;;;4.36;100.00
82413;BME280;72056;51.980;15.436;2023-11-21T10:48:56;100505.25;;;4.43;100.00
82413;BME280;72056;51.980;15.436;2023-11-21T10:51:22;100515.81;;;4.46;100.00
82413;BME280;72056;51.980;15.436;2023-11-21T10:53:52;100517.22;;;4.51;100.00
82413;BME280;72056;51.980;15.436;2023-11-21T10:56:19;100512.56;;;4.53;100.00
82413;BME280;72056;51.980;15.436;2023-11-21T10:58:50;100510.00;;;4.52;100.00
82413;BME280;72056;51.980;15.436;2023-11-21T11:01:21;100516.34;;;4.51;100.00
82413;BME280;72056;51.980;15.436;2023-11-21T11:03:50;100515.16;;;4.55;100.00
82413;BME280;72056;51.980;15.436;2023-11-21T11:06:21;100522.28;;;4.43;100.00
82413;BME280;72056;51.980;15.436;2023-11-21T11:08:52;100527.47;;;4.46;100.00
82413;BME280;72056;51.980;15.436;2023-11-21T11:11:25;100527.66;;;4.43;100.00
82413;BME280;72056;51.980;15.436;2023-11-21T11:13:52;100537.81;;;4.40;100.00
82413;BME280;72056;51.980;15.436;2023-11-21T11:16:20;100542.44;;;4.38;100.00
82413;BME280;72056;51.980;15.436;2023-11-21T11:18:48;100546.00;;;4.38;100.00
82413;BME280;72056;51.980;15.436;2023-11-21T11:21:41;100543.28;;;4.38;100.00
82413;BME280;72056;51.980;15.436;2023-11-21T11:27:35;100545.97;;;4.26;100.00
82413;BME280;72056;51.980;15.436;2023-11-21T11:30:38;100543.59;;;4.21;100.00
82413;BME280;72056;51.980;15.436;2023-11-21T11:33:11;100548.75;;;4.11;100.00
82413;BME280;72056;51.980;15.436;2023-11-21T11:36:05;100553.06;;;4.14;100.00
82413;BME280;72056;51.980;15.436;2023-11-21T11:38:37;100557.28;;;4.18;100.00
82413;BME280;72056;51.980;15.436;2023-11-21T11:41:07;100551.78;;;4.20;100.00
82413;BME280;72056;51.980;15.436;2023-11-21T11:43:36;100566.88;;;4.22;100.00
82413;BME280;72056;51.980;15.436;2023-11-21T11:46:15;100571.41;;;4.22;100.00
82413;BME280;72056;51.980;15.436;2023-11-21T11:48:42;100572.28;;;4.22;100.00
82413;BME280;72056;51.980;15.436;2023-11-21T11:51:13;100572.16;;;4.24;100.00
82413;BME280;72056;51.980;15.436;2023-11-21T11:53:48;100568.59;;;4.23;100.00
82413;BME280;72056;51.980;15.436;2023-11-21T11:56:50;100571.19;;;4.25;100.00
82413;BME280;72056;51.980;15.436;2023-11-21T11:59:18;100575.72;;;4.24;100.00
82413;BME280;72056;51.980;15.436;2023-11-21T12:01:46;100577.00;;;4.19;100.00
82413;BME280;72056;51.980;15.436;2023-11-21T12:06:52;100578.59;;;4.08;100.00
82413;BME280;72056;51.980;15.436;2023-11-21T12:09:25;100577.53;;;4.11;100.00
82413;BME280;72056;51.980;15.436;2023-11-21T12:11:54;100582.94;;;4.11;100.00
82413;BME280;72056;51.980;15.436;2023-11-21T12:14:23;100598.31;;;4.09;100.00
82413;BME280;72056;51.980;15.436;2023-11-21T12:16:50;100587.53;;;4.09;100.00
82413;BME280;72056;51.980;15.436;2023-11-21T12:19:22;100593.34;;;4.03;100.00
82413;BME280;72056;51.980;15.436;2023-11-21T12:21:48;100601.00;;;4.09;100.00
82413;BME280;72056;51.980;15.436;2023-11-21T12:24:15;100604.03;;;4.04;100.00
82413;BME280;72056;51.980;15.436;2023-11-21T12:26:42;100608.63;;;4.02;100.00
82413;BME280;72056;51.980;15.436;2023-11-21T12:29:11;100613.78;;;3.93;100.00
82413;BME280;72056;51.980;15.436;2023-11-21T12:31:42;100618.16;;;3.81;100.00
82413;BME280;72056;51.980;15.436;2023-11-21T12:34:09;100619.31;;;3.77;100.00
82413;BME280;72056;51.980;15.436;2023-11-21T12:36:37;100626.75;;;3.59;100.00
82413;BME280;72056;51.980;15.436;2023-11-21T12:39:05;100626.44;;;3.64;100.00
82413;BME280;72056;51.980;15.436;2023-11-21T12:41:37;100626.56;;;3.62;100.00
82413;BME280;72056;51.980;15.436;2023-11-21T12:44:12;100632.13;;;3.59;100.00
82413;BME280;72056;51.980;15.436;2023-11-21T12:46:44;100636.41;;;3.49;100.00
82413;BME280;72056;51.980;15.436;2023-11-21T12:49:12;100646.06;;;3.52;100.00
82413;BME280;72056;51.980;15.436;2023-11-21T12:51:45;100643.50;;;3.50;100.00
82413;BME280;72056;51.980;15.436;2023-11-21T12:54:12;100644.06;;;3.55;100.00
82413;BME280;72056;51.980;15.436;2023-11-21T12:56:45;100642.34;;;3.54;100.00
82413;BME280;72056;51.980;15.436;2023-11-21T12:59:15;100657.53;;;3.55;100.00